TimeCST,TemperatureF,Dew PointF,Humidity,Sea Level PressureIn,VisibilityMPH,Wind Direction,Wind SpeedMPH,Gust SpeedMPH,PrecipitationIn,Events,Conditions,WindDirDegrees,DateUTC
12:15 AM,39.9,31.8,73,29.76,10.0,WSW,6.9,-,N/A,,Clear,240,2013-02-04 06:15:00
12:35 AM,39.4,31.8,74,29.76,10.0,WSW,9.2,-,N/A,,Clear,240,2013-02-04 06:35:00
12:55 AM,39.9,31.8,73,29.76,10.0,West,6.9,-,N/A,,Clear,260,2013-02-04 06:55:00
1:15 AM,36.0,31.6,84,29.77,10.0,West,4.6,-,N/A,,Clear,260,2013-02-04 07:15:00
1:35 AM,37.4,31.8,80,29.77,10.0,West,6.9,-,N/A,,Clear,280,2013-02-04 07:35:00
1:55 AM,36.7,32.0,83,29.78,10.0,WNW,8.1,-,N/A,,Scattered Clouds,300,2013-02-04 07:55:00
2:15 AM,36.7,32.0,83,29.78,10.0,West,12.7,-,N/A,,Scattered Clouds,270,2013-02-04 08:15:00
2:35 AM,35.2,31.6,87,29.79,10.0,WNW,11.5,-,N/A,,Clear,290,2013-02-04 08:35:00
2:55 AM,33.6,31.1,90,29.80,10.0,WNW,9.2,-,N/A,,Clear,300,2013-02-04 08:55:00
3:15 AM,34.9,30.7,85,29.83,10.0,NNW,12.7,18.4,N/A,,Clear,330,2013-02-04 09:15:00
4:55 AM,25.9,24.4,94,29.89,10.0,NNW,12.7,20.7,N/A,,Scattered Clouds,340,2013-02-04 10:55:00
5:15 AM,25.2,23.4,93,29.91,10.0,North,11.5,19.6,N/A,,Mostly Cloudy,360,2013-02-04 11:15:00
5:35 AM,24.1,22.6,94,29.93,10.0,North,13.8,19.6,N/A,,Overcast,350,2013-02-04 11:35:00
5:55 AM,23.4,22.1,95,29.94,10.0,NNW,15.0,24.2,N/A,,Overcast,340,2013-02-04 11:55:00
6:15 AM,22.8,21.4,94,29.96,10.0,North,16.1,24.2,N/A,,Overcast,350,2013-02-04 12:15:00
6:55 AM,23.2,22.1,96,29.96,10.0,North,13.8,21.9,N/A,,Overcast,350,2013-02-04 12:55:00
7:15 AM,23.5,22.1,94,29.97,10.0,North,10.4,18.4,N/A,,Overcast,350,2013-02-04 13:15:00
7:35 AM,23.7,22.8,96,29.97,10.0,North,6.9,19.6,N/A,,Overcast,350,2013-02-04 13:35:00
7:55 AM,23.7,22.8,96,29.97,10.0,North,8.1,-,N/A,,Overcast,350,2013-02-04 13:55:00
8:15 AM,23.9,22.6,95,29.98,10.0,North,10.4,16.1,N/A,,Overcast,350,2013-02-04 14:15:00
8:35 AM,23.7,21.9,93,29.99,10.0,North,10.4,-,N/A,,Overcast,350,2013-02-04 14:35:00
8:55 AM,23.7,22.1,94,29.99,10.0,North,10.4,-,N/A,,Overcast,350,2013-02-04 14:55:00
9:15 AM,23.7,22.1,94,30.00,10.0,NNW,10.4,-,N/A,,Overcast,330,2013-02-04 15:15:00
9:35 AM,23.7,22.1,94,30.01,10.0,NNW,10.4,-,N/A,,Overcast,330,2013-02-04 15:35:00
9:55 AM,23.9,22.1,93,30.02,10.0,NNW,11.5,-,N/A,,Overcast,330,2013-02-04 15:55:00
10:15 AM,24.3,22.5,93,30.02,7.0,NNW,10.4,-,N/A,,Overcast,330,2013-02-04 16:15:00
10:35 AM,24.4,22.1,91,30.02,10.0,NNW,10.4,-,N/A,,Overcast,340,2013-02-04 16:35:00
10:55 AM,24.1,22.1,92,30.02,10.0,NNW,9.2,-,N/A,,Overcast,330,2013-02-04 16:55:00
11:15 AM,24.4,21.6,89,30.03,10.0,North,5.8,-,N/A,,Overcast,360,2013-02-04 17:15:00
11:35 AM,24.4,21.2,87,30.04,7.0,NNW,5.8,-,N/A,,Overcast,330,2013-02-04 17:35:00
11:55 AM,24.8,21.2,86,30.03,7.0,NNW,6.9,-,N/A,,Overcast,340,2013-02-04 17:55:00
12:15 PM,24.8,20.7,84,30.02,10.0,Calm,Calm,-,N/A,,Overcast,0,2013-02-04 18:15:00
12:35 PM,25.3,21.2,84,30.01,10.0,North,4.6,-,N/A,,Overcast,360,2013-02-04 18:35:00
12:55 PM,25.7,21.0,82,30.00,10.0,North,4.6,-,N/A,,Overcast,10,2013-02-04 18:55:00
1:15 PM,25.5,20.8,82,30.00,10.0,Calm,Calm,-,N/A,,Overcast,0,2013-02-04 19:15:00
1:35 PM,26.1,21.2,82,30.01,10.0,NW,6.9,-,N/A,,Overcast,310,2013-02-04 19:35:00
1:55 PM,25.9,21.2,82,30.00,10.0,NNW,4.6,-,N/A,,Overcast,340,2013-02-04 19:55:00
2:15 PM,26.2,21.4,82,29.99,10.0,WNW,4.6,-,N/A,,Overcast,290,2013-02-04 20:15:00
2:35 PM,26.2,21.0,81,29.99,10.0,Calm,Calm,-,N/A,,Overcast,0,2013-02-04 20:35:00
2:55 PM,27.1,21.6,80,29.98,10.0,Calm,Calm,-,N/A,,Overcast,0,2013-02-04 20:55:00
3:15 PM,26.8,21.4,80,29.98,10.0,Calm,Calm,-,N/A,,Overcast,0,2013-02-04 21:15:00
3:35 PM,26.6,21.2,80,29.98,10.0,Calm,Calm,-,N/A,,Overcast,0,2013-02-04 21:35:00
3:55 PM,26.6,21.6,81,29.97,10.0,Calm,Calm,-,N/A,,Overcast,0,2013-02-04 21:55:00
4:15 PM,26.4,21.9,83,29.96,10.0,Calm,Calm,-,N/A,,Overcast,0,2013-02-04 22:15:00
4:35 PM,26.6,21.9,82,29.95,10.0,Calm,Calm,-,N/A,,Overcast,0,2013-02-04 22:35:00
4:55 PM,26.4,21.7,82,29.94,10.0,SE,3.5,-,N/A,,Overcast,130,2013-02-04 22:55:00
5:15 PM,26.4,21.9,83,29.94,10.0,Calm,Calm,-,N/A,,Overcast,0,2013-02-04 23:15:00
5:35 PM,26.4,22.1,84,29.94,10.0,South,4.6,-,N/A,,Overcast,180,2013-02-04 23:35:00
6:15 PM,25.7,22.3,87,29.93,10.0,Calm,Calm,-,N/A,,Overcast,0,2013-02-05 00:15:00
6:35 PM,25.7,22.5,88,29.94,10.0,South,5.8,-,N/A,,Overcast,190,2013-02-05 00:35:00
6:55 PM,25.7,22.8,89,29.94,10.0,SSW,4.6,-,N/A,,Overcast,210,2013-02-05 00:55:00
7:15 PM,25.7,22.8,89,29.94,10.0,South,5.8,-,N/A,,Overcast,180,2013-02-05 01:15:00
7:35 PM,25.7,23.0,89,29.94,10.0,South,6.9,-,N/A,,Overcast,190,2013-02-05 01:35:00
7:55 PM,25.7,23.0,89,29.93,10.0,South,6.9,-,N/A,,Mostly Cloudy,170,2013-02-05 01:55:00
8:15 PM,26.2,23.5,90,29.92,10.0,SSE,8.1,-,N/A,,Overcast,160,2013-02-05 02:15:00
8:35 PM,26.2,23.7,90,29.91,10.0,SSE,8.1,-,N/A,,Scattered Clouds,160,2013-02-05 02:35:00
8:55 PM,26.2,23.9,91,29.89,10.0,SSE,9.2,-,N/A,,Scattered Clouds,160,2013-02-05 02:55:00
9:15 PM,26.2,23.9,91,29.89,10.0,SSE,9.2,-,N/A,,Overcast,160,2013-02-05 03:15:00
9:35 PM,26.4,24.1,91,29.90,10.0,South,8.1,-,N/A,,Overcast,170,2013-02-05 03:35:00
9:55 PM,26.6,24.6,92,29.90,10.0,South,6.9,-,N/A,,Overcast,170,2013-02-05 03:55:00
10:15 PM,27.3,25.2,92,29.89,10.0,South,9.2,-,N/A,,Overcast,180,2013-02-05 04:15:00
10:35 PM,27.3,25.2,92,29.88,10.0,South,8.1,-,N/A,,Overcast,180,2013-02-05 04:35:00
10:55 PM,27.1,25.3,93,29.88,10.0,South,6.9,-,N/A,,Overcast,170,2013-02-05 04:55:00
11:15 PM,27.1,25.5,94,29.87,7.0,South,8.1,-,N/A,,Overcast,180,2013-02-05 05:15:00
11:35 PM,27.3,25.7,94,29.87,7.0,South,5.8,-,N/A,,Overcast,190,2013-02-05 05:35:00
11:55 PM,27.5,26.1,94,29.87,7.0,South,5.8,-,N/A,,Overcast,180,2013-02-05 05:55:00